Salfordville, Pennsylvania
Current Conditions -  °F | °C
As of 4:54 AM on Saturday 29 Nov 2014 (Local Time) from KPTW Reporting Station
Clear Clear  
Wind Chill: 19°   Ceiling: Unl
Heat Index: 19°   Visibility: 10mi
Dew Point: 15°   Wind: 0mph
Humidity: 85%   Direction: NA
Pressure: 30.32"   Gusts: NA
Location:  40.29°N, 75.43°W
Report Text: KPTW 290954Z AUTO 00000KT 10SM CLR M07/M09 A3032 RMK AO2 SLP268 T10721094
Loading
Personal Weather Stations






























Interactive Weather Map New forecast layout! Learn more

10-Day Weather Forecast

Advertisements
Track Severe Weather on mobile